x

La Perouse Bank (46206) Wave Buoy

1:00am - Fri 24th Oct 2014 All times are PDT. -7 hours from GMT.

  • Sig Wave height 9.2ft
  • Peak Period 12s
  • Wind
    16mph, 22mph gusts
  • Sea Temp 58°f
  • Air Temp 53°f
  • Sea Pressure 1014mb
  • La Perouse Bank
  • La Perouse Bank

More Historic Weather Station data

Upgrade to MSW Pro to gain access to the past 30 days of data for over 8000 Wavebouys and Weather Stations around the globe.

Join Pro

Comparision Forecast

View Surf forecast
   
Fri 10/24 1:00am 9ft 12s 16 22 mph 1014mb 58f 53f
12:00am 9ft 11s 18 22 mph 1013.8mb 58f 53f
Thu 10/23 11:00pm 9ft 11s 16 20 mph 1013.3mb 58f 54f
10:00pm 9ft 11s 16 20 mph 1012.9mb 58f 54f
9:00pm 9ft 11s 13 18 mph 1012.4mb 58f 53f
8:00pm 7.5ft 8s 13 20 mph 1011.9mb 58f 53f
7:00pm 8ft 9s 13 18 mph 1011.3mb 59f 53f
6:00pm 8.5ft 8s 4 7 mph 1010.8mb 59f 55f
5:00pm 9ft 10s 4 7 mph 1010.3mb 59f 55f
4:00pm 9ft 9s 7 9 mph 1009.8mb 59f 55f
3:00pm 9ft 10s 4 7 mph 1009.2mb 58f 53f
2:00pm 10ft 9s 4 7 mph 1008.4mb 58f 53f
1:00pm 11ft 11s  -  2 mph 1007.8mb 58f 53f
12:00pm 11ft 11s 4 9 mph 1007.2mb 58f 51f
11:00am 12ft 11s 7 11 mph 1006.3mb 58f 52f
10:00am 11.5ft 11s 4 9 mph 1005.5mb 58f 51f
9:00am 11ft 12s 7 11 mph 1005.1mb 58f 51f
8:00am 11.5ft 9s 7 11 mph 1004.6mb 58f 51f
7:00am 12ft 10s 9 13 mph 1004.1mb 58f 51f
6:00am 12ft 9s 16 20 mph 1003.6mb 58f 51f
5:00am 11ft 9s 11 20 mph 1002.9mb 58f 56f
4:00am 10ft 12s 9 11 mph 1002.6mb 58f 56f
3:00am 10ft 9s 9 13 mph 1003mb 57f 56f
2:00am 10.5ft 10s 11 13 mph 1002.9mb 56f 56f
1:00am 12ft 10s 13 18 mph 1002.4mb 56f 56f
12:00am 12.5ft 10s 13 20 mph 1001.8mb 56f 56f
Wed 10/22 11:00pm 12ft 14s 11 13 mph 1001.3mb 56f 56f
10:00pm 12.5ft 12s 13 18 mph 1000.9mb 56f 55f
9:00pm 13ft 13s 7 9 mph 999.8mb 56f 54f
8:00pm 13ft 14s 18 27 mph 999mb 56f 55f
7:00pm 13ft 10s 16 20 mph 998.9mb 56f 55f
6:00pm 14ft 10s 18 22 mph 998.2mb 55f 55f
5:00pm 14.5ft 10s 7 9 mph 999.1mb 56f 53f
4:00pm 15ft 11s 11 13 mph 999.6mb 56f 56f
3:00pm 14.5ft 10s 9 16 mph 1000.3mb 55f 56f
2:00pm 14ft 10s 11 18 mph 1000.9mb 56f 56f
1:00pm 16.5ft 14s 13 18 mph 1001.7mb 56f 56f
12:00pm 15.5ft 11s 18 22 mph 1001.9mb 56f 56f
11:00am 16.5ft 12s 13 20 mph 1001.9mb 56f 52f
10:00am 17.5ft 11s 18 25 mph 1002.4mb 56f 53f
9:00am 17.5ft 11s 16 22 mph 1001.7mb 56f 56f
8:00am 16ft 12s 13 18 mph 1001.9mb 56f 56f
7:00am 16ft 11s 9 13 mph 1002mb 56f 56f
6:00am 18.5ft 15s 4 7 mph 1001.8mb 56f 56f
5:00am 17.5ft 11s 9 13 mph 1001.1mb 56f 56f
4:00am 20ft 12s 11 18 mph 1000.6mb 56f 56f
3:00am 21.5ft 10s 16 20 mph 999.8mb 56f 56f
2:00am 18.5ft 9s 13 20 mph 998.6mb 56f 56f
1:00am 17.5ft 9s 16 20 mph 997.6mb 56f 56f
12:00am 18ft 9s 18 22 mph 995.9mb 56f 57f
Tue 10/21 11:00pm 17.5ft 8s 34 40 mph 994.7mb 56f 59f
10:00pm 15ft 8s 36 45 mph 995.2mb 56f 59f
9:00pm 13ft 8s 29 38 mph 997.2mb 56f 59f
8:00pm 11ft 8s 27 34 mph 999mb 57f 59f
7:00pm 10.5ft 10s 27 36 mph 1000.3mb 57f 59f
6:00pm 10.5ft 13s 18 22 mph 1002mb 57f 54f
5:00pm 11ft 10s 13 18 mph 1004.1mb 57f 54f
4:00pm 11.5ft 11s 13 18 mph 1005.2mb 57f 55f
3:00pm 12ft 8s 22 40 mph 1005.1mb 57f 57f
2:00pm 12ft 12s 25 31 mph 1005.8mb 56f 56f
1:00pm 10.5ft 10s 27 40 mph 1005.3mb 55f 58f
12:00pm 10ft 10s 22 27 mph 1005.9mb 55f 58f
11:00am 10.5ft 12s 22 27 mph 1005.9mb 56f 57f
10:00am 10ft 11s 25 29 mph 1006mb 55f 57f
9:00am 10ft 14s 20 27 mph 1006.1mb 55f 58f
8:00am 11ft 14s 18 22 mph 1006.4mb 55f 58f
7:00am 10ft 13s 16 20 mph 1006.6mb 56f 58f
6:00am 10.5ft 12s 13 16 mph 1006.6mb 56f 58f
5:00am 9ft 14s 11 13 mph 1006.6mb 56f 58f
4:00am 10.5ft 13s 9 11 mph 1006.6mb 56f 58f
3:00am 10ft 14s 9
mph
1006.5mb 56f 58f
2:00am 9.5ft 14s 4 7 mph 1006.4mb 57f 58f
1:00am 9.5ft 14s 7 9 mph 1006.3mb 57f 58f
12:00am 10ft 14s 7 9 mph 1005.9mb 57f 58f
Mon 10/20 11:00pm 11.5ft 14s 7 9 mph 1005.6mb 56f 58f
10:00pm 11ft 12s 9 13 mph 1005mb 56f 58f
9:00pm 12ft 13s 11 16 mph 1004.6mb 55f 57f
8:00pm 12.5ft 14s 11 13 mph 1004.6mb 55f 56f
7:00pm 13ft 14s 11 13 mph 1004.7mb 55f 56f
6:00pm 13ft 14s 9 13 mph 1004.8mb 56f 57f
5:00pm 12.5ft 14s 9 11 mph 1004.8mb 56f 57f
4:00pm 12ft 15s 9 13 mph 1004.9mb 56f 57f
3:00pm 11ft 15s 9 11 mph 1005mb 56f 58f
2:00pm 10.5ft 15s 9 11 mph 1005.1mb 56f 58f
1:00pm 10ft 15s 13 16 mph 1004.6mb 57f 59f
12:00pm 10ft 10s 11 13 mph 1004.9mb 57f 58f
11:00am 11ft 15s 11 13 mph 1004.6mb 57f 58f
10:00am 10ft 10s 9 13 mph 1004.4mb 57f 58f